sensor_id;sensor_type;location;lat;lon;timestamp;P1;durP1;ratioP1;P2;durP2;ratioP2
57443;SDS011;43289;52.962;6.196;2023-11-21T00:00:31;28.13;;;12.38;;
57443;SDS011;43289;52.962;6.196;2023-11-21T00:02:57;30.20;;;11.80;;
57443;SDS011;43289;52.962;6.196;2023-11-21T00:05:23;28.90;;;11.57;;
57443;SDS011;43289;52.962;6.196;2023-11-21T00:07:49;26.50;;;11.20;;
57443;SDS011;43289;52.962;6.196;2023-11-21T00:10:16;25.95;;;12.10;;
57443;SDS011;43289;52.962;6.196;2023-11-21T00:12:42;24.90;;;11.70;;
57443;SDS011;43289;52.962;6.196;2023-11-21T00:15:09;25.70;;;11.68;;
57443;SDS011;43289;52.962;6.196;2023-11-21T00:17:38;29.92;;;11.00;;
57443;SDS011;43289;52.962;6.196;2023-11-21T00:20:05;27.40;;;11.38;;
57443;SDS011;43289;52.962;6.196;2023-11-21T00:22:32;26.35;;;12.00;;
57443;SDS011;43289;52.962;6.196;2023-11-21T00:24:58;25.15;;;11.57;;
57443;SDS011;43289;52.962;6.196;2023-11-21T00:27:24;23.73;;;11.18;;
57443;SDS011;43289;52.962;6.196;2023-11-21T00:29:50;31.65;;;11.40;;
57443;SDS011;43289;52.962;6.196;2023-11-21T00:32:16;24.30;;;11.75;;
57443;SDS011;43289;52.962;6.196;2023-11-21T00:34:42;28.75;;;10.77;;
57443;SDS011;43289;52.962;6.196;2023-11-21T00:37:09;30.20;;;11.82;;
57443;SDS011;43289;52.962;6.196;2023-11-21T00:39:35;25.98;;;11.32;;
57443;SDS011;43289;52.962;6.196;2023-11-21T00:42:01;25.70;;;11.18;;
57443;SDS011;43289;52.962;6.196;2023-11-21T00:44:27;27.52;;;10.45;;
57443;SDS011;43289;52.962;6.196;2023-11-21T00:46:52;23.38;;;10.80;;
57443;SDS011;43289;52.962;6.196;2023-11-21T00:49:19;22.52;;;10.45;;
57443;SDS011;43289;52.962;6.196;2023-11-21T00:51:45;28.58;;;10.63;;
57443;SDS011;43289;52.962;6.196;2023-11-21T00:54:11;31.05;;;12.27;;
57443;SDS011;43289;52.962;6.196;2023-11-21T00:56:37;26.02;;;10.50;;
57443;SDS011;43289;52.962;6.196;2023-11-21T00:59:05;24.33;;;10.50;;
57443;SDS011;43289;52.962;6.196;2023-11-21T01:01:32;28.45;;;11.38;;
57443;SDS011;43289;52.962;6.196;2023-11-21T01:03:58;30.95;;;11.07;;
57443;SDS011;43289;52.962;6.196;2023-11-21T01:06:24;33.50;;;11.07;;
57443;SDS011;43289;52.962;6.196;2023-11-21T01:08:50;29.00;;;11.15;;
57443;SDS011;43289;52.962;6.196;2023-11-21T01:11:16;32.13;;;11.20;;
57443;SDS011;43289;52.962;6.196;2023-11-21T01:13:42;33.15;;;10.93;;
57443;SDS011;43289;52.962;6.196;2023-11-21T01:16:09;31.27;;;11.15;;
57443;SDS011;43289;52.962;6.196;2023-11-21T01:18:36;26.40;;;10.35;;
57443;SDS011;43289;52.962;6.196;2023-11-21T01:21:02;29.75;;;11.00;;
57443;SDS011;43289;52.962;6.196;2023-11-21T01:23:29;36.35;;;12.00;;
57443;SDS011;43289;52.962;6.196;2023-11-21T01:25:56;29.25;;;11.57;;
57443;SDS011;43289;52.962;6.196;2023-11-21T01:28:22;26.65;;;10.57;;
57443;SDS011;43289;52.962;6.196;2023-11-21T01:30:48;31.05;;;10.50;;
57443;SDS011;43289;52.962;6.196;2023-11-21T01:33:14;29.88;;;10.52;;
57443;SDS011;43289;52.962;6.196;2023-11-21T01:35:41;36.38;;;11.05;;
57443;SDS011;43289;52.962;6.196;2023-11-21T01:38:07;30.10;;;10.82;;
57443;SDS011;43289;52.962;6.196;2023-11-21T01:40:34;29.30;;;11.20;;
57443;SDS011;43289;52.962;6.196;2023-11-21T01:43:00;28.52;;;11.15;;
57443;SDS011;43289;52.962;6.196;2023-11-21T01:45:29;26.98;;;10.40;;
57443;SDS011;43289;52.962;6.196;2023-11-21T01:47:59;33.00;;;10.50;;
57443;SDS011;43289;52.962;6.196;2023-11-21T01:50:25;32.85;;;11.60;;
57443;SDS011;43289;52.962;6.196;2023-11-21T01:52:51;27.15;;;11.15;;
57443;SDS011;43289;52.962;6.196;2023-11-21T01:55:18;35.97;;;11.07;;
57443;SDS011;43289;52.962;6.196;2023-11-21T01:57:44;30.25;;;11.38;;
57443;SDS011;43289;52.962;6.196;2023-11-21T02:00:11;30.17;;;11.93;;
57443;SDS011;43289;52.962;6.196;2023-11-21T02:02:46;26.50;;;10.75;;
57443;SDS011;43289;52.962;6.196;2023-11-21T02:05:14;27.17;;;11.30;;
57443;SDS011;43289;52.962;6.196;2023-11-21T02:07:43;27.75;;;12.13;;
57443;SDS011;43289;52.962;6.196;2023-11-21T02:10:10;25.48;;;11.90;;
57443;SDS011;43289;52.962;6.196;2023-11-21T02:12:39;35.13;;;13.13;;
57443;SDS011;43289;52.962;6.196;2023-11-21T02:15:07;37.55;;;13.20;;
57443;SDS011;43289;52.962;6.196;2023-11-21T02:17:40;29.35;;;12.30;;
57443;SDS011;43289;52.962;6.196;2023-11-21T02:20:06;35.72;;;12.40;;
57443;SDS011;43289;52.962;6.196;2023-11-21T02:22:32;35.05;;;12.23;;
57443;SDS011;43289;52.962;6.196;2023-11-21T02:25:00;31.20;;;13.13;;
57443;SDS011;43289;52.962;6.196;2023-11-21T02:27:27;31.45;;;12.32;;
57443;SDS011;43289;52.962;6.196;2023-11-21T02:29:53;31.95;;;12.35;;
57443;SDS011;43289;52.962;6.196;2023-11-21T02:32:37;34.67;;;12.32;;
57443;SDS011;43289;52.962;6.196;2023-11-21T02:35:05;34.17;;;12.30;;
57443;SDS011;43289;52.962;6.196;2023-11-21T02:37:33;32.88;;;12.30;;
57443;SDS011;43289;52.962;6.196;2023-11-21T02:40:00;32.13;;;12.55;;
57443;SDS011;43289;52.962;6.196;2023-11-21T02:42:28;38.58;;;13.60;;
57443;SDS011;43289;52.962;6.196;2023-11-21T02:44:54;35.35;;;11.90;;
57443;SDS011;43289;52.962;6.196;2023-11-21T02:47:22;34.65;;;12.23;;
57443;SDS011;43289;52.962;6.196;2023-11-21T02:49:48;41.38;;;11.63;;
57443;SDS011;43289;52.962;6.196;2023-11-21T02:52:14;30.48;;;11.32;;
57443;SDS011;43289;52.962;6.196;2023-11-21T02:54:41;39.40;;;12.82;;
57443;SDS011;43289;52.962;6.196;2023-11-21T02:57:07;39.90;;;12.95;;
57443;SDS011;43289;52.962;6.196;2023-11-21T02:59:33;41.30;;;12.38;;
57443;SDS011;43289;52.962;6.196;2023-11-21T03:02:00;31.40;;;11.75;;
57443;SDS011;43289;52.962;6.196;2023-11-21T03:04:26;35.67;;;13.55;;
57443;SDS011;43289;52.962;6.196;2023-11-21T03:06:52;40.10;;;13.65;;
57443;SDS011;43289;52.962;6.196;2023-11-21T03:12:24;53.03;;;13.90;;
57443;SDS011;43289;52.962;6.196;2023-11-21T03:14:50;43.08;;;14.00;;
57443;SDS011;43289;52.962;6.196;2023-11-21T03:17:16;37.60;;;13.95;;
57443;SDS011;43289;52.962;6.196;2023-11-21T03:19:42;46.45;;;13.75;;
57443;SDS011;43289;52.962;6.196;2023-11-21T03:22:09;38.05;;;12.95;;
57443;SDS011;43289;52.962;6.196;2023-11-21T03:24:36;40.63;;;12.98;;
57443;SDS011;43289;52.962;6.196;2023-11-21T03:27:03;50.28;;;14.93;;
57443;SDS011;43289;52.962;6.196;2023-11-21T03:29:29;48.38;;;14.50;;
57443;SDS011;43289;52.962;6.196;2023-11-21T03:31:56;38.92;;;13.10;;
57443;SDS011;43289;52.962;6.196;2023-11-21T03:34:23;52.92;;;13.63;;
57443;SDS011;43289;52.962;6.196;2023-11-21T03:36:50;51.08;;;14.65;;
57443;SDS011;43289;52.962;6.196;2023-11-21T03:39:31;54.50;;;14.43;;
57443;SDS011;43289;52.962;6.196;2023-11-21T03:41:57;53.75;;;16.13;;
57443;SDS011;43289;52.962;6.196;2023-11-21T03:44:23;53.92;;;16.10;;
57443;SDS011;43289;52.962;6.196;2023-11-21T03:46:49;66.47;;;17.67;;
57443;SDS011;43289;52.962;6.196;2023-11-21T03:49:15;49.92;;;15.70;;
57443;SDS011;43289;52.962;6.196;2023-11-21T03:51:41;40.97;;;14.50;;
57443;SDS011;43289;52.962;6.196;2023-11-21T03:54:07;45.80;;;15.18;;
57443;SDS011;43289;52.962;6.196;2023-11-21T03:56:33;58.08;;;16.00;;
57443;SDS011;43289;52.962;6.196;2023-11-21T03:58:59;58.75;;;17.60;;
57443;SDS011;43289;52.962;6.196;2023-11-21T04:04:27;56.40;;;16.52;;
57443;SDS011;43289;52.962;6.196;2023-11-21T04:06:53;57.00;;;17.90;;
57443;SDS011;43289;52.962;6.196;2023-11-21T04:09:22;72.15;;;16.85;;
57443;SDS011;43289;52.962;6.196;2023-11-21T04:11:50;58.78;;;16.60;;
57443;SDS011;43289;52.962;6.196;2023-11-21T04:14:16;49.05;;;15.00;;
57443;SDS011;43289;52.962;6.196;2023-11-21T04:16:52;60.28;;;16.30;;
57443;SDS011;43289;52.962;6.196;2023-11-21T04:19:18;72.72;;;17.30;;
57443;SDS011;43289;52.962;6.196;2023-11-21T04:21:45;84.25;;;19.52;;
57443;SDS011;43289;52.962;6.196;2023-11-21T04:24:12;58.47;;;15.95;;
57443;SDS011;43289;52.962;6.196;2023-11-21T04:26:38;68.00;;;17.25;;
57443;SDS011;43289;52.962;6.196;2023-11-21T04:29:04;65.72;;;18.05;;
57443;SDS011;43289;52.962;6.196;2023-11-21T04:31:30;69.43;;;17.73;;
57443;SDS011;43289;52.962;6.196;2023-11-21T04:33:57;50.05;;;15.57;;
57443;SDS011;43289;52.962;6.196;2023-11-21T04:36:23;50.75;;;16.60;;
57443;SDS011;43289;52.962;6.196;2023-11-21T04:38:49;69.18;;;18.15;;
57443;SDS011;43289;52.962;6.196;2023-11-21T04:41:15;58.08;;;16.40;;
57443;SDS011;43289;52.962;6.196;2023-11-21T04:43:41;81.32;;;19.15;;
57443;SDS011;43289;52.962;6.196;2023-11-21T04:46:07;70.88;;;18.38;;
57443;SDS011;43289;52.962;6.196;2023-11-21T04:48:33;47.85;;;16.27;;
57443;SDS011;43289;52.962;6.196;2023-11-21T04:50:59;89.47;;;20.30;;
57443;SDS011;43289;52.962;6.196;2023-11-21T04:53:25;85.07;;;21.15;;
57443;SDS011;43289;52.962;6.196;2023-11-21T04:55:51;60.97;;;17.90;;
57443;SDS011;43289;52.962;6.196;2023-11-21T04:58:17;58.42;;;17.98;;
57443;SDS011;43289;52.962;6.196;2023-11-21T05:00:45;72.55;;;19.17;;
57443;SDS011;43289;52.962;6.196;2023-11-21T05:03:11;110.03;;;24.08;;
57443;SDS011;43289;52.962;6.196;2023-11-21T05:05:37;64.70;;;19.23;;
57443;SDS011;43289;52.962;6.196;2023-11-21T05:08:03;44.05;;;17.48;;
57443;SDS011;43289;52.962;6.196;2023-11-21T05:10:30;64.78;;;19.42;;
57443;SDS011;43289;52.962;6.196;2023-11-21T05:12:56;73.50;;;20.05;;
57443;SDS011;43289;52.962;6.196;2023-11-21T05:15:23;75.50;;;20.30;;
57443;SDS011;43289;52.962;6.196;2023-11-21T05:17:49;61.95;;;18.58;;
57443;SDS011;43289;52.962;6.196;2023-11-21T05:20:17;51.05;;;16.25;;
57443;SDS011;43289;52.962;6.196;2023-11-21T05:22:46;47.85;;;17.42;;
57443;SDS011;43289;52.962;6.196;2023-11-21T05:25:13;52.55;;;16.48;;
57443;SDS011;43289;52.962;6.196;2023-11-21T05:27:39;44.05;;;18.05;;
57443;SDS011;43289;52.962;6.196;2023-11-21T05:30:05;51.03;;;17.65;;
57443;SDS011;43289;52.962;6.196;2023-11-21T05:32:34;59.65;;;19.50;;
57443;SDS011;43289;52.962;6.196;2023-11-21T05:35:00;53.13;;;15.82;;
57443;SDS011;43289;52.962;6.196;2023-11-21T05:37:26;55.60;;;17.30;;
57443;SDS011;43289;52.962;6.196;2023-11-21T05:39:53;40.05;;;16.17;;
57443;SDS011;43289;52.962;6.196;2023-11-21T05:42:22;41.78;;;15.18;;
57443;SDS011;43289;52.962;6.196;2023-11-21T05:44:48;48.00;;;16.80;;
57443;SDS011;43289;52.962;6.196;2023-11-21T05:47:15;57.45;;;18.15;;
57443;SDS011;43289;52.962;6.196;2023-11-21T05:49:41;46.80;;;16.77;;
57443;SDS011;43289;52.962;6.196;2023-11-21T05:54:51;67.65;;;19.27;;
57443;SDS011;43289;52.962;6.196;2023-11-21T05:57:17;56.00;;;17.38;;
57443;SDS011;43289;52.962;6.196;2023-11-21T05:59:43;61.25;;;19.25;;
57443;SDS011;43289;52.962;6.196;2023-11-21T06:02:11;62.35;;;18.00;;
57443;SDS011;43289;52.962;6.196;2023-11-21T06:04:39;66.78;;;17.98;;
57443;SDS011;43289;52.962;6.196;2023-11-21T06:07:05;50.85;;;17.45;;
57443;SDS011;43289;52.962;6.196;2023-11-21T06:09:32;53.72;;;16.38;;
57443;SDS011;43289;52.962;6.196;2023-11-21T06:11:58;50.50;;;16.77;;
57443;SDS011;43289;52.962;6.196;2023-11-21T06:14:24;43.22;;;15.07;;
57443;SDS011;43289;52.962;6.196;2023-11-21T06:16:50;53.42;;;16.15;;
57443;SDS011;43289;52.962;6.196;2023-11-21T06:19:20;45.38;;;17.13;;
57443;SDS011;43289;52.962;6.196;2023-11-21T06:21:46;47.50;;;16.75;;
57443;SDS011;43289;52.962;6.196;2023-11-21T06:24:12;47.28;;;17.17;;
57443;SDS011;43289;52.962;6.196;2023-11-21T06:26:40;43.97;;;17.52;;
57443;SDS011;43289;52.962;6.196;2023-11-21T06:29:06;46.47;;;16.92;;
57443;SDS011;43289;52.962;6.196;2023-11-21T06:31:32;43.38;;;16.30;;
57443;SDS011;43289;52.962;6.196;2023-11-21T06:33:58;42.92;;;15.73;;
57443;SDS011;43289;52.962;6.196;2023-11-21T06:36:25;38.20;;;15.27;;
57443;SDS011;43289;52.962;6.196;2023-11-21T06:38:51;35.75;;;14.88;;
57443;SDS011;43289;52.962;6.196;2023-11-21T06:41:17;38.67;;;15.05;;
57443;SDS011;43289;52.962;6.196;2023-11-21T06:43:43;32.97;;;13.23;;
57443;SDS011;43289;52.962;6.196;2023-11-21T06:46:11;33.50;;;13.75;;
57443;SDS011;43289;52.962;6.196;2023-11-21T06:51:14;39.10;;;14.38;;
57443;SDS011;43289;52.962;6.196;2023-11-21T06:53:40;33.05;;;13.75;;
57443;SDS011;43289;52.962;6.196;2023-11-21T06:56:15;31.30;;;13.32;;
57443;SDS011;43289;52.962;6.196;2023-11-21T06:58:41;35.73;;;14.13;;
57443;SDS011;43289;52.962;6.196;2023-11-21T07:01:08;29.92;;;13.30;;
57443;SDS011;43289;52.962;6.196;2023-11-21T07:03:34;36.85;;;14.85;;
57443;SDS011;43289;52.962;6.196;2023-11-21T07:06:02;33.17;;;14.80;;
57443;SDS011;43289;52.962;6.196;2023-11-21T07:11:19;33.72;;;14.82;;
57443;SDS011;43289;52.962;6.196;2023-11-21T07:13:46;35.15;;;14.82;;
57443;SDS011;43289;52.962;6.196;2023-11-21T07:16:12;31.42;;;13.35;;
57443;SDS011;43289;52.962;6.196;2023-11-21T07:18:38;27.10;;;13.18;;
57443;SDS011;43289;52.962;6.196;2023-11-21T07:21:05;32.70;;;13.75;;
57443;SDS011;43289;52.962;6.196;2023-11-21T07:23:31;28.70;;;12.85;;
57443;SDS011;43289;52.962;6.196;2023-11-21T07:25:57;27.17;;;12.52;;
57443;SDS011;43289;52.962;6.196;2023-11-21T07:28:24;26.00;;;12.70;;
57443;SDS011;43289;52.962;6.196;2023-11-21T07:30:51;25.02;;;12.63;;
57443;SDS011;43289;52.962;6.196;2023-11-21T07:33:17;27.33;;;12.68;;
57443;SDS011;43289;52.962;6.196;2023-11-21T07:35:43;27.77;;;12.90;;
57443;SDS011;43289;52.962;6.196;2023-11-21T07:38:09;28.17;;;13.60;;
57443;SDS011;43289;52.962;6.196;2023-11-21T07:40:35;27.33;;;13.43;;
57443;SDS011;43289;52.962;6.196;2023-11-21T07:43:01;27.05;;;13.20;;
57443;SDS011;43289;52.962;6.196;2023-11-21T07:45:27;28.67;;;12.80;;
57443;SDS011;43289;52.962;6.196;2023-11-21T07:47:54;29.77;;;12.13;;
57443;SDS011;43289;52.962;6.196;2023-11-21T07:50:20;27.40;;;11.25;;
57443;SDS011;43289;52.962;6.196;2023-11-21T07:52:46;28.35;;;12.65;;
57443;SDS011;43289;52.962;6.196;2023-11-21T07:55:12;25.65;;;12.18;;
57443;SDS011;43289;52.962;6.196;2023-11-21T07:57:38;28.33;;;12.50;;
57443;SDS011;43289;52.962;6.196;2023-11-21T08:00:05;26.27;;;13.13;;
57443;SDS011;43289;52.962;6.196;2023-11-21T08:02:34;28.70;;;12.57;;
57443;SDS011;43289;52.962;6.196;2023-11-21T08:05:00;25.38;;;12.20;;
57443;SDS011;43289;52.962;6.196;2023-11-21T08:07:26;30.48;;;13.90;;
57443;SDS011;43289;52.962;6.196;2023-11-21T08:09:52;33.55;;;13.02;;
57443;SDS011;43289;52.962;6.196;2023-11-21T08:12:18;26.25;;;12.15;;
57443;SDS011;43289;52.962;6.196;2023-11-21T08:14:45;28.60;;;11.23;;
57443;SDS011;43289;52.962;6.196;2023-11-21T08:17:11;26.98;;;11.65;;
57443;SDS011;43289;52.962;6.196;2023-11-21T08:19:37;23.50;;;11.60;;
57443;SDS011;43289;52.962;6.196;2023-11-21T08:22:03;24.35;;;11.63;;
57443;SDS011;43289;52.962;6.196;2023-11-21T08:24:32;27.35;;;11.82;;
57443;SDS011;43289;52.962;6.196;2023-11-21T08:26:58;23.98;;;10.25;;
57443;SDS011;43289;52.962;6.196;2023-11-21T08:29:24;23.35;;;10.25;;
57443;SDS011;43289;52.962;6.196;2023-11-21T08:31:50;25.38;;;10.90;;
57443;SDS011;43289;52.962;6.196;2023-11-21T08:34:16;18.00;;;9.23;;
57443;SDS011;43289;52.962;6.196;2023-11-21T08:36:43;18.40;;;9.57;;
57443;SDS011;43289;52.962;6.196;2023-11-21T08:39:10;20.90;;;9.52;;
57443;SDS011;43289;52.962;6.196;2023-11-21T08:41:38;17.17;;;8.73;;
57443;SDS011;43289;52.962;6.196;2023-11-21T08:44:04;22.00;;;10.48;;
57443;SDS011;43289;52.962;6.196;2023-11-21T08:46:33;19.17;;;9.48;;
57443;SDS011;43289;52.962;6.196;2023-11-21T08:49:01;19.35;;;8.30;;
57443;SDS011;43289;52.962;6.196;2023-11-21T08:51:27;19.65;;;9.38;;
57443;SDS011;43289;52.962;6.196;2023-11-21T08:53:54;19.35;;;8.82;;
57443;SDS011;43289;52.962;6.196;2023-11-21T08:56:24;19.88;;;8.98;;
57443;SDS011;43289;52.962;6.196;2023-11-21T08:58:50;19.55;;;9.23;;
57443;SDS011;43289;52.962;6.196;2023-11-21T09:01:16;20.60;;;9.05;;
57443;SDS011;43289;52.962;6.196;2023-11-21T09:03:42;27.40;;;10.80;;
57443;SDS011;43289;52.962;6.196;2023-11-21T09:06:09;18.27;;;8.63;;
57443;SDS011;43289;52.962;6.196;2023-11-21T09:08:35;23.08;;;9.55;;
57443;SDS011;43289;52.962;6.196;2023-11-21T09:11:01;26.65;;;11.18;;
57443;SDS011;43289;52.962;6.196;2023-11-21T09:13:27;23.50;;;10.73;;
57443;SDS011;43289;52.962;6.196;2023-11-21T09:15:54;27.52;;;11.85;;
57443;SDS011;43289;52.962;6.196;2023-11-21T09:18:20;26.20;;;12.38;;
57443;SDS011;43289;52.962;6.196;2023-11-21T09:20:46;28.05;;;12.38;;
57443;SDS011;43289;52.962;6.196;2023-11-21T09:23:12;32.88;;;12.43;;
57443;SDS011;43289;52.962;6.196;2023-11-21T09:25:38;25.45;;;12.68;;
57443;SDS011;43289;52.962;6.196;2023-11-21T09:28:05;23.40;;;12.27;;
57443;SDS011;43289;52.962;6.196;2023-11-21T09:30:33;33.85;;;14.25;;
57443;SDS011;43289;52.962;6.196;2023-11-21T09:33:00;28.00;;;14.48;;
57443;SDS011;43289;52.962;6.196;2023-11-21T09:35:26;27.13;;;14.05;;
57443;SDS011;43289;52.962;6.196;2023-11-21T09:37:53;29.77;;;14.25;;
57443;SDS011;43289;52.962;6.196;2023-11-21T09:40:20;27.85;;;14.32;;
57443;SDS011;43289;52.962;6.196;2023-11-21T09:42:56;31.95;;;15.48;;
57443;SDS011;43289;52.962;6.196;2023-11-21T09:45:27;25.75;;;14.57;;
57443;SDS011;43289;52.962;6.196;2023-11-21T09:47:54;28.45;;;14.75;;
57443;SDS011;43289;52.962;6.196;2023-11-21T09:50:21;28.27;;;14.50;;
57443;SDS011;43289;52.962;6.196;2023-11-21T09:55:34;27.25;;;15.02;;
57443;SDS011;43289;52.962;6.196;2023-11-21T09:58:04;24.98;;;14.93;;
57443;SDS011;43289;52.962;6.196;2023-11-21T10:00:33;26.80;;;14.00;;
57443;SDS011;43289;52.962;6.196;2023-11-21T10:02:59;24.05;;;14.60;;
57443;SDS011;43289;52.962;6.196;2023-11-21T10:05:25;24.10;;;12.82;;
57443;SDS011;43289;52.962;6.196;2023-11-21T10:07:51;22.20;;;14.02;;
57443;SDS011;43289;52.962;6.196;2023-11-21T10:10:19;22.80;;;13.88;;
57443;SDS011;43289;52.962;6.196;2023-11-21T10:12:48;19.83;;;12.35;;
57443;SDS011;43289;52.962;6.196;2023-11-21T10:15:16;17.60;;;12.05;;
57443;SDS011;43289;52.962;6.196;2023-11-21T10:17:42;18.40;;;11.75;;
57443;SDS011;43289;52.962;6.196;2023-11-21T10:20:13;17.08;;;12.25;;
57443;SDS011;43289;52.962;6.196;2023-11-21T10:22:42;19.58;;;12.65;;
57443;SDS011;43289;52.962;6.196;2023-11-21T10:25:09;16.20;;;11.43;;
57443;SDS011;43289;52.962;6.196;2023-11-21T10:27:35;15.80;;;11.20;;
57443;SDS011;43289;52.962;6.196;2023-11-21T10:30:03;15.77;;;11.10;;
57443;SDS011;43289;52.962;6.196;2023-11-21T10:32:30;16.33;;;11.27;;
57443;SDS011;43289;52.962;6.196;2023-11-21T10:34:57;18.40;;;12.75;;
57443;SDS011;43289;52.962;6.196;2023-11-21T10:37:25;15.93;;;11.90;;
57443;SDS011;43289;52.962;6.196;2023-11-21T10:39:57;18.30;;;10.85;;
57443;SDS011;43289;52.962;6.196;2023-11-21T10:42:23;19.70;;;12.50;;
57443;SDS011;43289;52.962;6.196;2023-11-21T10:44:49;19.45;;;12.30;;
57443;SDS011;43289;52.962;6.196;2023-11-21T10:47:15;18.25;;;11.82;;
57443;SDS011;43289;52.962;6.196;2023-11-21T10:49:44;15.98;;;10.65;;
57443;SDS011;43289;52.962;6.196;2023-11-21T10:52:12;18.48;;;11.73;;
57443;SDS011;43289;52.962;6.196;2023-11-21T10:54:42;17.02;;;12.13;;
57443;SDS011;43289;52.962;6.196;2023-11-21T10:57:08;17.98;;;12.30;;
57443;SDS011;43289;52.962;6.196;2023-11-21T10:59:35;16.40;;;11.30;;
57443;SDS011;43289;52.962;6.196;2023-11-21T11:02:07;17.58;;;12.30;;
57443;SDS011;43289;52.962;6.196;2023-11-21T11:04:40;17.33;;;12.07;;
57443;SDS011;43289;52.962;6.196;2023-11-21T11:07:07;24.55;;;13.43;;
57443;SDS011;43289;52.962;6.196;2023-11-21T11:09:34;18.98;;;13.05;;
57443;SDS011;43289;52.962;6.196;2023-11-21T11:12:03;17.60;;;11.68;;
57443;SDS011;43289;52.962;6.196;2023-11-21T11:14:31;14.90;;;11.10;;
57443;SDS011;43289;52.962;6.196;2023-11-21T11:16:57;15.52;;;11.30;;
57443;SDS011;43289;52.962;6.196;2023-11-21T11:19:25;13.95;;;10.43;;
57443;SDS011;43289;52.962;6.196;2023-11-21T11:34:33;15.23;;;10.13;;
57443;SDS011;43289;52.962;6.196;2023-11-21T11:37:02;12.23;;;9.23;;
57443;SDS011;43289;52.962;6.196;2023-11-21T11:39:29;14.35;;;9.85;;
57443;SDS011;43289;52.962;6.196;2023-11-21T11:41:56;13.65;;;9.82;;
57443;SDS011;43289;52.962;6.196;2023-11-21T11:44:46;14.85;;;10.50;;
57443;SDS011;43289;52.962;6.196;2023-11-21T11:47:24;11.90;;;8.45;;
57443;SDS011;43289;52.962;6.196;2023-11-21T11:52:34;13.63;;;8.48;;
57443;SDS011;43289;52.962;6.196;2023-11-21T11:55:02;13.95;;;8.45;;
57443;SDS011;43289;52.962;6.196;2023-11-21T11:57:31;11.98;;;8.25;;
57443;SDS011;43289;52.962;6.196;2023-11-21T12:00:17;14.35;;;9.07;;
57443;SDS011;43289;52.962;6.196;2023-11-21T12:02:54;10.63;;;7.45;;
57443;SDS011;43289;52.962;6.196;2023-11-21T12:05:25;10.23;;;7.80;;
57443;SDS011;43289;52.962;6.196;2023-11-21T12:07:55;10.07;;;7.43;;
57443;SDS011;43289;52.962;6.196;2023-11-21T12:10:26;12.70;;;8.98;;
57443;SDS011;43289;52.962;6.196;2023-11-21T12:15:22;10.40;;;7.45;;
57443;SDS011;43289;52.962;6.196;2023-11-21T12:17:49;9.27;;;6.75;;
57443;SDS011;43289;52.962;6.196;2023-11-21T12:20:16;11.55;;;8.07;;
57443;SDS011;43289;52.962;6.196;2023-11-21T12:22:44;11.95;;;7.55;;
57443;SDS011;43289;52.962;6.196;2023-11-21T12:25:13;10.05;;;7.15;;
57443;SDS011;43289;52.962;6.196;2023-11-21T12:27:41;10.40;;;7.60;;
57443;SDS011;43289;52.962;6.196;2023-11-21T12:30:07;10.65;;;7.57;;
57443;SDS011;43289;52.962;6.196;2023-11-21T12:32:38;9.93;;;6.63;;
57443;SDS011;43289;52.962;6.196;2023-11-21T12:35:05;10.07;;;6.55;;
57443;SDS011;43289;52.962;6.196;2023-11-21T12:37:31;10.00;;;6.55;;
57443;SDS011;43289;52.962;6.196;2023-11-21T12:39:57;9.25;;;6.70;;
57443;SDS011;43289;52.962;6.196;2023-11-21T12:42:24;9.23;;;6.50;;
57443;SDS011;43289;52.962;6.196;2023-11-21T12:45:07;10.35;;;5.88;;
57443;SDS011;43289;52.962;6.196;2023-11-21T12:47:34;9.70;;;6.20;;
57443;SDS011;43289;52.962;6.196;2023-11-21T12:50:02;9.00;;;6.25;;
57443;SDS011;43289;52.962;6.196;2023-11-21T12:52:30;10.38;;;6.22;;
57443;SDS011;43289;52.962;6.196;2023-11-21T12:54:57;9.38;;;6.65;;
57443;SDS011;43289;52.962;6.196;2023-11-21T12:57:26;9.93;;;5.57;;
57443;SDS011;43289;52.962;6.196;2023-11-21T12:59:56;9.60;;;6.85;;
57443;SDS011;43289;52.962;6.196;2023-11-21T13:02:25;9.63;;;5.75;;
57443;SDS011;43289;52.962;6.196;2023-11-21T13:04:52;8.75;;;5.82;;
57443;SDS011;43289;52.962;6.196;2023-11-21T13:07:19;10.88;;;6.80;;
57443;SDS011;43289;52.962;6.196;2023-11-21T13:09:47;10.43;;;5.25;;
57443;SDS011;43289;52.962;6.196;2023-11-21T13:12:13;8.25;;;5.70;;
57443;SDS011;43289;52.962;6.196;2023-11-21T13:14:43;8.15;;;5.45;;
57443;SDS011;43289;52.962;6.196;2023-11-21T13:17:11;9.88;;;6.35;;
57443;SDS011;43289;52.962;6.196;2023-11-21T13:19:38;9.27;;;5.97;;
57443;SDS011;43289;52.962;6.196;2023-11-21T13:22:04;8.60;;;5.40;;
57443;SDS011;43289;52.962;6.196;2023-11-21T13:24:30;7.88;;;5.15;;
57443;SDS011;43289;52.962;6.196;2023-11-21T13:26:57;11.50;;;6.75;;
57443;SDS011;43289;52.962;6.196;2023-11-21T13:29:24;9.30;;;6.32;;
57443;SDS011;43289;52.962;6.196;2023-11-21T13:31:51;11.10;;;6.40;;
57443;SDS011;43289;52.962;6.196;2023-11-21T13:34:18;9.55;;;5.93;;
57443;SDS011;43289;52.962;6.196;2023-11-21T13:36:47;8.88;;;5.85;;
57443;SDS011;43289;52.962;6.196;2023-11-21T13:39:13;11.23;;;6.78;;
57443;SDS011;43289;52.962;6.196;2023-11-21T13:41:41;9.68;;;5.47;;
57443;SDS011;43289;52.962;6.196;2023-11-21T13:44:07;9.82;;;6.63;;
57443;SDS011;43289;52.962;6.196;2023-11-21T13:46:41;9.80;;;6.32;;
57443;SDS011;43289;52.962;6.196;2023-11-21T13:49:07;10.00;;;5.97;;
57443;SDS011;43289;52.962;6.196;2023-11-21T13:51:35;8.48;;;5.80;;
57443;SDS011;43289;52.962;6.196;2023-11-21T13:54:10;9.63;;;5.60;;
57443;SDS011;43289;52.962;6.196;2023-11-21T13:56:36;10.10;;;5.90;;
57443;SDS011;43289;52.962;6.196;2023-11-21T13:59:03;7.75;;;5.32;;
57443;SDS011;43289;52.962;6.196;2023-11-21T14:01:41;7.00;;;5.35;;
57443;SDS011;43289;52.962;6.196;2023-11-21T14:04:19;8.65;;;5.70;;
57443;SDS011;43289;52.962;6.196;2023-11-21T14:07:00;8.40;;;6.18;;
57443;SDS011;43289;52.962;6.196;2023-11-21T14:09:35;7.80;;;5.65;;
57443;SDS011;43289;52.962;6.196;2023-11-21T14:12:08;8.82;;;5.47;;
57443;SDS011;43289;52.962;6.196;2023-11-21T14:14:37;9.23;;;6.28;;
57443;SDS011;43289;52.962;6.196;2023-11-21T14:17:04;14.27;;;6.50;;
57443;SDS011;43289;52.962;6.196;2023-11-21T14:19:32;9.35;;;6.57;;
57443;SDS011;43289;52.962;6.196;2023-11-21T14:21:59;11.40;;;6.45;;
57443;SDS011;43289;52.962;6.196;2023-11-21T14:24:26;9.38;;;6.43;;
57443;SDS011;43289;52.962;6.196;2023-11-21T14:26:54;10.95;;;7.43;;
57443;SDS011;43289;52.962;6.196;2023-11-21T14:29:20;10.98;;;6.72;;
57443;SDS011;43289;52.962;6.196;2023-11-21T14:31:47;11.35;;;6.90;;
57443;SDS011;43289;52.962;6.196;2023-11-21T14:34:14;8.30;;;6.05;;
57443;SDS011;43289;52.962;6.196;2023-11-21T14:36:40;11.05;;;7.05;;
57443;SDS011;43289;52.962;6.196;2023-11-21T14:39:08;10.80;;;7.22;;
57443;SDS011;43289;52.962;6.196;2023-11-21T14:41:48;10.48;;;7.88;;
57443;SDS011;43289;52.962;6.196;2023-11-21T14:44:14;12.43;;;6.78;;
57443;SDS011;43289;52.962;6.196;2023-11-21T14:46:40;10.57;;;6.40;;
57443;SDS011;43289;52.962;6.196;2023-11-21T14:49:11;10.10;;;7.10;;
57443;SDS011;43289;52.962;6.196;2023-11-21T14:51:47;9.25;;;7.03;;
57443;SDS011;43289;52.962;6.196;2023-11-21T14:54:27;10.00;;;6.85;;
57443;SDS011;43289;52.962;6.196;2023-11-21T14:57:09;11.35;;;7.15;;
57443;SDS011;43289;52.962;6.196;2023-11-21T14:59:45;10.43;;;6.85;;
57443;SDS011;43289;52.962;6.196;2023-11-21T15:02:17;11.00;;;7.32;;